createdAt,value
2022-11-09T00:00:24.336Z,15.65
2022-11-09T00:02:51.992Z,15.55
2022-11-09T00:05:19.676Z,16.30
2022-11-09T00:07:47.835Z,15.05
2022-11-09T00:10:16.282Z,14.43
2022-11-09T00:12:43.880Z,14.70
2022-11-09T00:15:11.997Z,14.90
2022-11-09T00:17:39.832Z,13.60
2022-11-09T00:20:08.183Z,14.95
2022-11-09T00:22:35.931Z,14.93
2022-11-09T00:25:04.107Z,13.38
2022-11-09T00:27:31.771Z,15.07
2022-11-09T00:29:59.399Z,15.07
2022-11-09T00:32:28.054Z,12.60
2022-11-09T00:34:55.681Z,15.18
2022-11-09T00:37:23.271Z,14.80
2022-11-09T00:39:51.244Z,13.05
2022-11-09T00:42:18.952Z,13.50
2022-11-09T00:44:46.777Z,14.35
2022-11-09T00:47:14.422Z,16.00
2022-11-09T00:49:42.083Z,14.23
2022-11-09T00:52:09.516Z,14.68
2022-11-09T00:54:37.870Z,15.93
2022-11-09T00:57:05.524Z,14.70
2022-11-09T00:59:33.327Z,12.85
2022-11-09T01:02:00.941Z,15.25
2022-11-09T01:04:28.744Z,15.02
2022-11-09T01:06:56.114Z,16.80
2022-11-09T01:09:23.636Z,15.75
2022-11-09T01:11:51.424Z,15.68
2022-11-09T01:14:19.073Z,15.38
2022-11-09T01:16:46.689Z,15.18
2022-11-09T01:19:14.695Z,16.55
2022-11-09T01:21:42.473Z,16.83
2022-11-09T01:24:10.238Z,15.00
2022-11-09T01:26:38.068Z,16.48
2022-11-09T01:29:05.752Z,17.20
2022-11-09T01:31:33.439Z,14.85
2022-11-09T01:34:00.788Z,15.60
2022-11-09T01:36:28.192Z,15.60
2022-11-09T01:38:55.961Z,17.27
2022-11-09T01:41:27.456Z,15.00
2022-11-09T01:44:18.742Z,17.55
2022-11-09T01:46:53.935Z,17.23
2022-11-09T01:49:33.112Z,17.35
2022-11-09T01:52:06.405Z,14.70
2022-11-09T01:54:40.688Z,16.65
2022-11-09T01:57:20.564Z,16.08
2022-11-09T01:59:58.909Z,15.70
2022-11-09T02:02:26.638Z,18.15
2022-11-09T02:05:07.362Z,17.27
2022-11-09T02:07:35.520Z,16.23
2022-11-09T02:10:10.724Z,16.42
2022-11-09T02:12:38.505Z,17.20
2022-11-09T02:15:09.168Z,18.05
2022-11-09T02:17:37.193Z,16.13
2022-11-09T02:20:11.381Z,16.80
2022-11-09T02:22:39.213Z,17.08
2022-11-09T02:25:07.221Z,18.15
2022-11-09T02:27:35.608Z,16.52
2022-11-09T02:30:04.917Z,17.60
2022-11-09T02:32:36.825Z,16.40
2022-11-09T02:35:07.056Z,16.70
2022-11-09T02:37:40.289Z,17.17
2022-11-09T02:40:16.521Z,16.98
2022-11-09T02:42:45.270Z,16.55
2022-11-09T02:45:15.623Z,13.65
2022-11-09T02:47:43.724Z,14.15
2022-11-09T02:50:14.338Z,13.68
2022-11-09T02:52:43.061Z,12.10
2022-11-09T02:55:11.847Z,13.32
2022-11-09T02:57:42.747Z,13.77
2022-11-09T03:00:13.936Z,13.40
2022-11-09T03:02:43.250Z,15.52
2022-11-09T03:05:13.725Z,14.95
2022-11-09T03:07:43.585Z,14.15
2022-11-09T03:10:13.324Z,13.68
2022-11-09T03:12:43.112Z,14.07
2022-11-09T03:15:11.948Z,12.80
2022-11-09T03:17:40.902Z,12.48
2022-11-09T03:20:09.927Z,13.57
2022-11-09T03:22:38.491Z,11.93
2022-11-09T03:25:09.479Z,12.93
2022-11-09T03:27:40.045Z,11.80
2022-11-09T03:30:10.708Z,12.52
2022-11-09T03:32:44.698Z,13.20
2022-11-09T03:35:16.335Z,12.70
2022-11-09T03:37:44.975Z,12.80
2022-11-09T03:40:14.948Z,12.48
2022-11-09T03:42:47.203Z,12.98
2022-11-09T03:45:18.612Z,12.68
2022-11-09T03:47:48.529Z,13.48
2022-11-09T03:50:20.000Z,12.93
2022-11-09T03:52:51.312Z,13.82
2022-11-09T03:55:22.177Z,13.73
2022-11-09T03:57:51.354Z,13.90
2022-11-09T04:00:23.294Z,13.48
2022-11-09T04:02:52.529Z,13.43
2022-11-09T04:05:24.356Z,14.57
2022-11-09T04:07:57.587Z,14.73
2022-11-09T04:13:00.261Z,13.75
2022-11-09T04:15:29.114Z,12.48
2022-11-09T04:18:01.494Z,12.35
2022-11-09T04:20:34.436Z,13.02
2022-11-09T04:23:08.370Z,14.85
2022-11-09T04:25:40.752Z,13.52
2022-11-09T04:28:12.740Z,13.93
2022-11-09T04:30:42.274Z,13.82
2022-11-09T04:33:13.752Z,13.73
2022-11-09T04:35:44.146Z,13.85
2022-11-09T04:38:15.876Z,14.27
2022-11-09T04:40:47.106Z,14.10
2022-11-09T04:43:17.305Z,13.35
2022-11-09T04:45:48.848Z,13.35
2022-11-09T04:48:19.464Z,14.35
2022-11-09T04:50:53.138Z,12.93
2022-11-09T04:53:22.789Z,12.10
2022-11-09T04:55:51.800Z,12.40
2022-11-09T04:58:24.809Z,13.70
2022-11-09T05:00:54.689Z,12.75
2022-11-09T05:03:24.302Z,12.57
2022-11-09T05:05:52.742Z,13.77
2022-11-09T05:08:22.639Z,12.10
2022-11-09T05:10:51.433Z,12.82
2022-11-09T05:13:20.774Z,13.05
2022-11-09T05:15:49.734Z,13.18
2022-11-09T05:18:19.055Z,13.40
2022-11-09T05:20:51.257Z,12.32
2022-11-09T05:23:35.468Z,13.45
2022-11-09T05:26:04.810Z,12.23
2022-11-09T05:28:34.632Z,12.63
2022-11-09T05:31:02.610Z,12.23
2022-11-09T05:33:32.707Z,12.75
2022-11-09T05:36:01.636Z,12.75
2022-11-09T05:38:32.216Z,12.05
2022-11-09T05:41:00.520Z,12.05
2022-11-09T05:43:29.425Z,12.05
2022-11-09T05:46:02.482Z,11.30
2022-11-09T05:48:34.594Z,12.02
2022-11-09T05:51:06.096Z,11.38
2022-11-09T05:53:35.593Z,10.95
2022-11-09T05:56:08.684Z,11.57
2022-11-09T05:58:40.232Z,10.48
2022-11-09T06:01:12.486Z,10.70
2022-11-09T06:03:45.586Z,10.25
2022-11-09T06:06:17.935Z,10.68
2022-11-09T06:08:47.763Z,10.47
2022-11-09T06:11:23.151Z,10.45
2022-11-09T06:13:53.827Z,10.65
2022-11-09T06:16:24.054Z,10.40
2022-11-09T06:18:54.891Z,10.80
2022-11-09T06:21:25.091Z,11.02
2022-11-09T06:23:55.036Z,10.40
2022-11-09T06:26:25.033Z,11.18
2022-11-09T06:28:55.768Z,9.88
2022-11-09T06:31:24.634Z,11.68
2022-11-09T06:33:55.074Z,10.40
2022-11-09T06:36:24.880Z,10.25
2022-11-09T06:38:54.621Z,10.88
2022-11-09T06:41:25.381Z,10.73
2022-11-09T06:43:54.570Z,11.27
2022-11-09T06:46:28.126Z,10.68
2022-11-09T06:49:00.870Z,10.77
2022-11-09T06:51:31.649Z,9.73
2022-11-09T06:54:01.081Z,10.18
2022-11-09T06:56:31.848Z,10.88
2022-11-09T06:59:02.283Z,10.90
2022-11-09T07:01:32.566Z,10.43
2022-11-09T07:04:03.426Z,10.15
2022-11-09T07:06:32.252Z,11.00
2022-11-09T07:09:02.522Z,9.90
2022-11-09T07:11:32.435Z,9.88
2022-11-09T07:14:04.638Z,10.02
2022-11-09T07:16:34.767Z,10.70
2022-11-09T07:19:05.512Z,10.23
2022-11-09T07:21:36.522Z,11.20
2022-11-09T07:24:06.234Z,9.88
2022-11-09T07:26:36.908Z,8.98
2022-11-09T07:29:05.732Z,11.07
2022-11-09T07:31:35.402Z,10.25
2022-11-09T07:34:06.252Z,10.70
2022-11-09T07:36:38.855Z,10.68
2022-11-09T07:39:09.619Z,10.23
2022-11-09T07:41:39.410Z,10.35
2022-11-09T07:44:10.709Z,10.35
2022-11-09T07:46:41.497Z,9.35
2022-11-09T07:49:11.316Z,10.23
2022-11-09T07:51:41.806Z,10.63
2022-11-09T07:54:13.129Z,11.32
2022-11-09T07:56:44.328Z,11.43
2022-11-09T07:59:18.909Z,10.88
2022-11-09T08:01:48.576Z,11.05
2022-11-09T08:04:18.546Z,11.35
2022-11-09T08:06:46.785Z,11.95
2022-11-09T08:09:15.906Z,11.10
2022-11-09T08:11:43.332Z,11.55
2022-11-09T08:14:11.163Z,11.32
2022-11-09T08:16:38.976Z,11.70
2022-11-09T08:19:09.115Z,12.32
2022-11-09T08:21:38.376Z,12.20
2022-11-09T08:24:06.733Z,13.25
2022-11-09T08:26:34.505Z,12.07
2022-11-09T08:29:02.198Z,12.13
2022-11-09T08:31:30.091Z,12.73
2022-11-09T08:33:57.796Z,11.38
2022-11-09T08:36:27.967Z,12.18
2022-11-09T08:38:55.831Z,10.07
2022-11-09T08:41:23.681Z,11.27
2022-11-09T08:43:51.330Z,10.02
2022-11-09T08:46:20.677Z,10.38
2022-11-09T08:48:48.419Z,9.98
2022-11-09T08:51:15.795Z,9.63
2022-11-09T08:53:43.231Z,10.02
2022-11-09T08:56:13.123Z,9.32
2022-11-09T08:58:41.017Z,9.85
2022-11-09T09:01:13.888Z,10.48
2022-11-09T09:03:44.721Z,9.55
2022-11-09T09:06:12.581Z,8.15
2022-11-09T09:08:40.178Z,7.65
2022-11-09T09:11:08.223Z,9.07
2022-11-09T09:13:40.530Z,9.20
2022-11-09T09:16:14.289Z,8.50
2022-11-09T09:18:42.043Z,9.55
2022-11-09T09:21:10.975Z,8.82
2022-11-09T09:23:38.745Z,9.13
2022-11-09T09:26:06.723Z,9.48
2022-11-09T09:28:34.975Z,9.60
2022-11-09T09:31:05.716Z,10.23
2022-11-09T09:33:33.809Z,10.27
2022-11-09T09:36:01.623Z,10.55
2022-11-09T09:38:29.983Z,11.10
2022-11-09T09:41:01.073Z,11.27
2022-11-09T09:43:42.723Z,9.88
2022-11-09T09:46:32.565Z,10.65
2022-11-09T09:49:08.074Z,10.68
2022-11-09T09:51:41.197Z,10.88
2022-11-09T09:54:22.845Z,10.88
2022-11-09T09:56:53.221Z,10.95
2022-11-09T09:59:48.473Z,11.48
2022-11-09T10:02:32.314Z,12.57
2022-11-09T10:05:07.069Z,11.38
2022-11-09T10:07:47.217Z,11.48
2022-11-09T10:10:37.614Z,11.52
2022-11-09T10:13:35.886Z,12.00
2022-11-09T10:16:27.968Z,11.90
2022-11-09T10:19:22.628Z,11.90
2022-11-09T10:22:00.911Z,11.90
2022-11-09T10:27:52.141Z,10.55
2022-11-09T10:30:21.561Z,12.18
2022-11-09T10:32:52.800Z,11.27
2022-11-09T10:35:30.786Z,11.82
2022-11-09T10:37:58.760Z,11.73
2022-11-09T10:40:39.138Z,11.98
2022-11-09T10:43:11.540Z,10.57
2022-11-09T10:45:41.995Z,12.07
2022-11-09T10:48:11.729Z,11.13
2022-11-09T10:50:55.973Z,10.85
2022-11-09T10:53:25.703Z,12.02
2022-11-09T10:55:56.956Z,11.05
2022-11-09T10:58:33.278Z,12.27
2022-11-09T11:01:14.260Z,10.68
2022-11-09T11:03:43.492Z,12.95
2022-11-09T11:06:27.283Z,11.25
2022-11-09T11:09:16.557Z,12.85
2022-11-09T11:11:44.621Z,10.73
2022-11-09T11:14:28.186Z,11.80
2022-11-09T11:16:56.369Z,12.25
2022-11-09T11:19:32.147Z,11.73
2022-11-09T11:22:19.940Z,11.60
2022-11-09T11:24:57.438Z,10.75
2022-11-09T11:27:45.804Z,11.93
2022-11-09T11:30:23.133Z,10.90
2022-11-09T11:32:54.310Z,13.13
2022-11-09T11:35:38.974Z,12.30
2022-11-09T11:38:23.681Z,10.50
2022-11-09T11:41:11.267Z,10.32
2022-11-09T11:43:57.101Z,10.15
2022-11-09T11:46:48.594Z,10.52
2022-11-09T11:49:42.384Z,11.05
2022-11-09T11:57:52.513Z,7.22
2022-11-09T12:00:21.294Z,9.85
2022-11-09T12:03:08.603Z,9.88
2022-11-09T12:06:09.450Z,9.52
2022-11-09T12:09:00.571Z,9.45
2022-11-09T12:11:43.309Z,9.77
2022-11-09T12:14:33.090Z,9.80
2022-11-09T12:17:20.338Z,9.00
2022-11-09T12:20:18.993Z,9.73
2022-11-09T12:23:17.702Z,9.48
2022-11-09T12:26:04.450Z,8.50
2022-11-09T12:29:01.069Z,9.57
2022-11-09T12:31:50.740Z,9.25
2022-11-09T12:34:27.917Z,8.30
2022-11-09T12:37:08.055Z,9.40
2022-11-09T12:39:42.203Z,8.18
2022-11-09T12:42:30.164Z,7.80
2022-11-09T12:45:08.039Z,7.32
2022-11-09T12:47:41.668Z,7.78
2022-11-09T12:50:25.827Z,8.70
2022-11-09T12:52:53.808Z,7.97
2022-11-09T12:55:30.178Z,8.13
2022-11-09T12:58:00.969Z,9.02
2022-11-09T13:00:49.703Z,8.80
2022-11-09T13:03:24.526Z,8.60
2022-11-09T13:06:20.203Z,9.15
2022-11-09T13:09:07.879Z,8.18
2022-11-09T13:11:47.042Z,8.55
2022-11-09T13:14:36.901Z,8.13
2022-11-09T13:17:40.668Z,8.93
2022-11-09T13:20:56.594Z,9.10
2022-11-09T13:26:56.300Z,9.32
2022-11-09T13:29:52.300Z,9.60
2022-11-09T13:32:28.486Z,9.73
2022-11-09T13:34:57.789Z,9.50
2022-11-09T13:37:48.361Z,9.90
2022-11-09T13:40:41.098Z,9.65
2022-11-09T13:43:32.325Z,10.68
2022-11-09T13:46:03.288Z,10.70
2022-11-09T13:48:47.079Z,11.07
2022-11-09T13:51:18.649Z,8.80
2022-11-09T13:54:03.248Z,11.25
2022-11-09T13:56:40.211Z,9.60
2022-11-09T13:59:25.692Z,10.48
2022-11-09T14:01:56.640Z,10.15
2022-11-09T14:04:30.871Z,9.98
2022-11-09T14:07:23.929Z,10.50
2022-11-09T14:10:16.642Z,11.00
2022-11-09T14:13:00.266Z,10.13
2022-11-09T14:15:55.932Z,10.52
2022-11-09T14:18:52.304Z,11.02
2022-11-09T14:21:47.609Z,11.10
2022-11-09T14:24:19.928Z,11.15
2022-11-09T14:27:12.721Z,10.70
2022-11-09T14:29:56.996Z,9.32
2022-11-09T14:32:33.127Z,11.00
2022-11-09T14:35:31.238Z,11.10
2022-11-09T14:38:01.919Z,10.60
2022-11-09T14:40:32.160Z,11.00
2022-11-09T14:43:17.662Z,11.60
2022-11-09T14:45:55.119Z,11.98
2022-11-09T14:48:24.764Z,12.85
2022-11-09T14:50:55.468Z,13.50
2022-11-09T14:53:28.684Z,12.52
2022-11-09T14:55:59.938Z,12.90
2022-11-09T14:58:30.655Z,12.80
2022-11-09T15:01:21.938Z,13.73
2022-11-09T15:04:08.174Z,11.65
2022-11-09T15:06:36.489Z,12.50
2022-11-09T15:09:08.850Z,12.40
2022-11-09T15:11:40.170Z,12.52
2022-11-09T15:14:25.710Z,12.43
2022-11-09T15:17:07.179Z,13.65
2022-11-09T15:19:47.731Z,13.75
2022-11-09T15:22:44.433Z,14.73
2022-11-09T15:25:41.658Z,14.02
2022-11-09T15:28:26.925Z,12.35
2022-11-09T15:31:13.668Z,13.82
2022-11-09T15:33:52.404Z,13.13
2022-11-09T15:36:28.798Z,12.90
2022-11-09T15:39:04.715Z,11.93
2022-11-09T15:41:32.924Z,13.48
2022-11-09T15:44:00.590Z,13.05
2022-11-09T15:46:34.827Z,12.95
2022-11-09T15:49:15.741Z,13.27
2022-11-09T15:51:44.808Z,13.88
2022-11-09T15:54:13.003Z,13.60
2022-11-09T15:56:40.573Z,12.32
2022-11-09T15:59:15.509Z,14.00
2022-11-09T16:01:43.465Z,14.07
2022-11-09T16:04:11.160Z,12.77
2022-11-09T16:06:42.468Z,14.32
2022-11-09T16:09:13.009Z,13.30
2022-11-09T16:11:40.943Z,13.45
2022-11-09T16:14:08.776Z,15.73
2022-11-09T16:16:36.569Z,13.40
2022-11-09T16:19:04.414Z,14.75
2022-11-09T16:21:34.948Z,14.43
2022-11-09T16:24:02.685Z,14.60
2022-11-09T16:26:30.631Z,14.07
2022-11-09T16:29:01.336Z,14.35
2022-11-09T16:31:50.445Z,13.50
2022-11-09T16:34:17.906Z,13.55
2022-11-09T16:36:50.819Z,14.63
2022-11-09T16:39:20.349Z,14.55
2022-11-09T16:41:50.347Z,14.30
2022-11-09T16:44:21.665Z,14.45
2022-11-09T16:46:49.186Z,14.73
2022-11-09T16:49:16.837Z,14.00
2022-11-09T16:51:44.579Z,13.43
2022-11-09T16:54:12.290Z,13.07
2022-11-09T16:56:39.968Z,13.77
2022-11-09T16:59:07.874Z,15.07
2022-11-09T17:01:35.815Z,14.63
2022-11-09T17:04:03.856Z,14.18
2022-11-09T17:06:34.251Z,14.15
2022-11-09T17:09:03.531Z,13.15
2022-11-09T17:11:31.614Z,13.43
2022-11-09T17:14:00.453Z,13.23
2022-11-09T17:16:31.038Z,13.55
2022-11-09T17:19:00.679Z,14.02
2022-11-09T17:21:31.721Z,12.63
2022-11-09T17:24:02.336Z,11.77
2022-11-09T17:26:33.615Z,12.02
2022-11-09T17:29:05.034Z,12.27
2022-11-09T17:31:36.345Z,13.27
2022-11-09T17:34:05.626Z,10.95
2022-11-09T17:37:02.492Z,11.02
2022-11-09T17:39:23.399Z,12.38
2022-11-09T17:41:51.863Z,12.05
2022-11-09T17:44:19.876Z,12.00
2022-11-09T17:46:47.997Z,12.60
2022-11-09T17:49:16.011Z,12.60
2022-11-09T17:51:44.173Z,10.50
2022-11-09T17:54:12.465Z,10.95
2022-11-09T17:56:40.660Z,11.73
2022-11-09T17:59:08.565Z,10.88
2022-11-09T18:01:41.118Z,11.13
2022-11-09T18:04:11.388Z,11.27
2022-11-09T18:06:39.347Z,10.75
2022-11-09T18:11:55.304Z,10.40
2022-11-09T18:14:25.592Z,10.50
2022-11-09T18:16:54.210Z,9.20
2022-11-09T18:19:22.463Z,10.65
2022-11-09T18:21:50.552Z,10.25
2022-11-09T18:24:18.152Z,10.45
2022-11-09T18:26:46.291Z,10.13
2022-11-09T18:29:14.674Z,9.13
2022-11-09T18:31:43.207Z,9.80
2022-11-09T18:34:11.898Z,9.48
2022-11-09T18:36:40.390Z,9.50
2022-11-09T18:39:09.146Z,8.90
2022-11-09T18:41:37.376Z,8.82
2022-11-09T18:44:06.705Z,9.05
2022-11-09T18:46:36.362Z,9.55
2022-11-09T18:49:11.522Z,9.68
2022-11-09T18:51:43.480Z,8.88
2022-11-09T18:54:16.195Z,9.68
2022-11-09T18:56:46.554Z,9.32
2022-11-09T18:59:15.292Z,8.98
2022-11-09T19:01:44.211Z,9.98
2022-11-09T19:04:17.124Z,9.15
2022-11-09T19:06:49.059Z,8.90
2022-11-09T19:09:32.920Z,9.15
2022-11-09T19:12:09.858Z,9.23
2022-11-09T19:14:41.776Z,9.80
2022-11-09T19:17:16.003Z,9.85
2022-11-09T19:19:44.185Z,9.60
2022-11-09T19:22:17.622Z,9.40
2022-11-09T19:24:48.069Z,11.15
2022-11-09T19:27:16.520Z,12.25
2022-11-09T19:29:45.351Z,9.82
2022-11-09T19:32:15.449Z,8.40
2022-11-09T19:34:46.972Z,8.60
2022-11-09T19:37:15.981Z,10.63
2022-11-09T19:39:47.878Z,9.27
2022-11-09T19:42:16.977Z,9.13
2022-11-09T19:44:46.080Z,9.85
2022-11-09T19:47:16.370Z,8.65
2022-11-09T19:49:47.646Z,8.23
2022-11-09T19:52:17.709Z,8.00
2022-11-09T19:54:47.457Z,8.63
2022-11-09T19:57:16.965Z,8.68
2022-11-09T19:59:46.176Z,8.23
2022-11-09T20:02:15.830Z,8.30
2022-11-09T20:04:45.301Z,7.78
2022-11-09T20:07:14.979Z,10.30
2022-11-09T20:09:44.283Z,8.52
2022-11-09T20:12:29.308Z,8.27
2022-11-09T20:14:59.193Z,7.93
2022-11-09T20:17:28.154Z,7.88
2022-11-09T20:19:57.846Z,7.50
2022-11-09T20:22:29.956Z,8.57
2022-11-09T20:24:58.348Z,8.18
2022-11-09T20:27:29.586Z,8.07
2022-11-09T20:30:01.811Z,8.10
2022-11-09T20:32:33.205Z,7.82
2022-11-09T20:35:01.936Z,7.85
2022-11-09T20:37:31.213Z,8.35
2022-11-09T20:39:59.102Z,8.10
2022-11-09T20:42:29.834Z,8.05
2022-11-09T20:44:59.038Z,7.78
2022-11-09T20:47:57.141Z,7.35
2022-11-09T20:50:15.823Z,7.53
2022-11-09T20:52:48.156Z,7.63
2022-11-09T20:55:17.311Z,7.40
2022-11-09T20:57:45.889Z,6.70
2022-11-09T21:00:14.421Z,6.95
2022-11-09T21:02:43.554Z,6.78
2022-11-09T21:05:13.259Z,7.60
2022-11-09T21:07:44.214Z,7.57
2022-11-09T21:10:12.585Z,7.50
2022-11-09T21:12:40.426Z,7.72
2022-11-09T21:15:11.290Z,7.97
2022-11-09T21:17:39.223Z,7.82
2022-11-09T21:20:10.197Z,8.40
2022-11-09T21:22:54.616Z,8.48
2022-11-09T21:25:38.749Z,8.30
2022-11-09T21:28:22.468Z,8.00
2022-11-09T21:30:50.917Z,8.77
2022-11-09T21:33:19.795Z,7.78
2022-11-09T21:35:48.619Z,8.70
2022-11-09T21:38:16.876Z,8.02
2022-11-09T21:40:46.426Z,8.00
2022-11-09T21:43:15.416Z,8.07
2022-11-09T21:45:44.100Z,7.28
2022-11-09T21:48:12.663Z,7.38
2022-11-09T21:50:40.759Z,8.43
2022-11-09T21:53:08.274Z,8.38
2022-11-09T21:55:36.056Z,7.93
2022-11-09T21:58:03.525Z,8.43
2022-11-09T22:00:31.253Z,8.30
2022-11-09T22:02:59.558Z,8.00
2022-11-09T22:05:27.513Z,7.85
2022-11-09T22:07:55.305Z,8.48
2022-11-09T22:10:24.972Z,8.18
2022-11-09T22:13:08.059Z,8.55
2022-11-09T22:15:51.407Z,8.55
2022-11-09T22:21:01.984Z,8.77
2022-11-09T22:23:29.839Z,7.70
2022-11-09T22:26:02.266Z,8.02
2022-11-09T22:28:30.153Z,8.25
2022-11-09T22:31:01.172Z,8.23
2022-11-09T22:33:31.760Z,8.88
2022-11-09T22:36:03.160Z,7.95
2022-11-09T22:38:33.575Z,8.70
2022-11-09T22:41:03.113Z,8.27
2022-11-09T22:43:35.032Z,8.27
2022-11-09T22:46:04.383Z,9.13
2022-11-09T22:48:33.842Z,8.90
2022-11-09T22:51:01.807Z,8.85
2022-11-09T22:53:29.896Z,8.18
2022-11-09T22:55:59.650Z,8.73
2022-11-09T22:58:27.636Z,9.57
2022-11-09T23:00:55.465Z,9.25
2022-11-09T23:03:23.567Z,9.13
2022-11-09T23:05:51.857Z,9.23
2022-11-09T23:08:19.305Z,8.77
2022-11-09T23:10:55.340Z,8.75
2022-11-09T23:13:23.422Z,8.85
2022-11-09T23:15:56.200Z,8.95
2022-11-09T23:18:39.165Z,9.55
2022-11-09T23:21:07.319Z,9.65
2022-11-09T23:23:35.136Z,10.00
2022-11-09T23:26:03.441Z,9.68
2022-11-09T23:28:31.985Z,9.32
2022-11-09T23:31:01.374Z,9.13
2022-11-09T23:33:29.422Z,9.55
2022-11-09T23:35:57.826Z,10.10
2022-11-09T23:38:25.652Z,9.10
2022-11-09T23:40:53.203Z,9.55
2022-11-09T23:43:21.477Z,9.25
2022-11-09T23:45:49.283Z,10.13
2022-11-09T23:48:18.954Z,10.45
2022-11-09T23:50:48.251Z,9.43
2022-11-09T23:53:15.980Z,10.20
2022-11-09T23:55:43.360Z,10.40
2022-11-09T23:58:11.078Z,9.20
